sensor_id;sensor_type;location;lat;lon;timestamp;temperature;humidity
3752;DHT22;50827;47.014;7.652;2023-07-13T00:00:13;19.50;99.90
3752;DHT22;50827;47.014;7.652;2023-07-13T00:02:42;19.60;99.90
3752;DHT22;50827;47.014;7.652;2023-07-13T00:05:10;19.70;99.90
3752;DHT22;50827;47.014;7.652;2023-07-13T00:07:37;19.70;99.90
3752;DHT22;50827;47.014;7.652;2023-07-13T00:10:05;19.80;99.90
3752;DHT22;50827;47.014;7.652;2023-07-13T00:12:35;19.70;99.90
3752;DHT22;50827;47.014;7.652;2023-07-13T00:15:13;19.70;99.90
3752;DHT22;50827;47.014;7.652;2023-07-13T00:17:42;19.70;99.90
3752;DHT22;50827;47.014;7.652;2023-07-13T00:20:12;19.80;99.90
3752;DHT22;50827;47.014;7.652;2023-07-13T00:22:39;19.80;99.90
3752;DHT22;50827;47.014;7.652;2023-07-13T00:25:06;19.80;99.90
3752;DHT22;50827;47.014;7.652;2023-07-13T00:27:35;19.80;99.90
3752;DHT22;50827;47.014;7.652;2023-07-13T00:30:02;19.80;99.90
3752;DHT22;50827;47.014;7.652;2023-07-13T00:32:29;19.70;99.90
3752;DHT22;50827;47.014;7.652;2023-07-13T00:34:56;19.60;99.90
3752;DHT22;50827;47.014;7.652;2023-07-13T00:37:24;19.60;99.90
3752;DHT22;50827;47.014;7.652;2023-07-13T00:39:50;19.60;99.90
3752;DHT22;50827;47.014;7.652;2023-07-13T00:42:17;19.70;99.90
3752;DHT22;50827;47.014;7.652;2023-07-13T00:46:10;19.80;99.90
3752;DHT22;50827;47.014;7.652;2023-07-13T00:47:54;19.70;99.90
3752;DHT22;50827;47.014;7.652;2023-07-13T00:50:22;19.70;99.90
3752;DHT22;50827;47.014;7.652;2023-07-13T00:52:53;19.70;99.90
3752;DHT22;50827;47.014;7.652;2023-07-13T00:55:22;19.80;99.90
3752;DHT22;50827;47.014;7.652;2023-07-13T00:57:49;19.70;99.90
3752;DHT22;50827;47.014;7.652;2023-07-13T01:00:15;19.70;99.90
3752;DHT22;50827;47.014;7.652;2023-07-13T01:02:45;19.70;99.90
3752;DHT22;50827;47.014;7.652;2023-07-13T01:05:15;19.70;99.90
3752;DHT22;50827;47.014;7.652;2023-07-13T01:07:43;19.70;99.90
3752;DHT22;50827;47.014;7.652;2023-07-13T01:10:12;19.70;99.90
3752;DHT22;50827;47.014;7.652;2023-07-13T01:12:39;19.70;99.90
3752;DHT22;50827;47.014;7.652;2023-07-13T01:18:07;19.70;99.90
3752;DHT22;50827;47.014;7.652;2023-07-13T01:20:34;19.70;99.90
3752;DHT22;50827;47.014;7.652;2023-07-13T01:23:11;19.70;99.90
3752;DHT22;50827;47.014;7.652;2023-07-13T01:25:39;19.70;99.90
3752;DHT22;50827;47.014;7.652;2023-07-13T01:28:07;19.70;99.90
3752;DHT22;50827;47.014;7.652;2023-07-13T01:30:36;19.70;99.90
3752;DHT22;50827;47.014;7.652;2023-07-13T01:33:04;19.60;99.90
3752;DHT22;50827;47.014;7.652;2023-07-13T01:35:31;19.70;99.90
3752;DHT22;50827;47.014;7.652;2023-07-13T01:37:58;19.60;99.90
3752;DHT22;50827;47.014;7.652;2023-07-13T01:40:27;19.60;99.90
3752;DHT22;50827;47.014;7.652;2023-07-13T01:42:54;19.60;99.90
3752;DHT22;50827;47.014;7.652;2023-07-13T01:45:20;19.70;99.90
3752;DHT22;50827;47.014;7.652;2023-07-13T01:47:47;19.60;99.90
3752;DHT22;50827;47.014;7.652;2023-07-13T01:50:14;19.70;99.90
3752;DHT22;50827;47.014;7.652;2023-07-13T01:52:41;19.70;99.90
3752;DHT22;50827;47.014;7.652;2023-07-13T01:55:08;19.70;99.90
3752;DHT22;50827;47.014;7.652;2023-07-13T01:57:35;19.70;99.90
3752;DHT22;50827;47.014;7.652;2023-07-13T02:00:06;19.60;99.90
3752;DHT22;50827;47.014;7.652;2023-07-13T02:02:33;19.50;99.90
3752;DHT22;50827;47.014;7.652;2023-07-13T02:05:00;19.50;99.90
3752;DHT22;50827;47.014;7.652;2023-07-13T02:07:26;19.40;99.90
3752;DHT22;50827;47.014;7.652;2023-07-13T02:09:53;19.40;99.90
3752;DHT22;50827;47.014;7.652;2023-07-13T02:12:20;19.30;99.90
3752;DHT22;50827;47.014;7.652;2023-07-13T02:14:46;19.40;99.90
3752;DHT22;50827;47.014;7.652;2023-07-13T02:17:14;19.30;99.90
3752;DHT22;50827;47.014;7.652;2023-07-13T02:19:41;19.20;99.90
3752;DHT22;50827;47.014;7.652;2023-07-13T02:22:07;19.20;99.90
3752;DHT22;50827;47.014;7.652;2023-07-13T02:24:34;19.30;99.90
3752;DHT22;50827;47.014;7.652;2023-07-13T02:27:01;19.20;99.90
3752;DHT22;50827;47.014;7.652;2023-07-13T02:29:27;19.20;99.90
3752;DHT22;50827;47.014;7.652;2023-07-13T02:31:54;19.20;99.90
3752;DHT22;50827;47.014;7.652;2023-07-13T02:34:21;19.20;99.90
3752;DHT22;50827;47.014;7.652;2023-07-13T02:36:48;19.30;99.90
3752;DHT22;50827;47.014;7.652;2023-07-13T02:39:14;19.30;99.90
3752;DHT22;50827;47.014;7.652;2023-07-13T02:41:41;19.30;99.90
3752;DHT22;50827;47.014;7.652;2023-07-13T02:44:08;19.20;99.90
3752;DHT22;50827;47.014;7.652;2023-07-13T02:46:36;19.30;99.90
3752;DHT22;50827;47.014;7.652;2023-07-13T02:49:04;19.20;99.90
3752;DHT22;50827;47.014;7.652;2023-07-13T02:51:30;19.20;99.90
3752;DHT22;50827;47.014;7.652;2023-07-13T02:54:03;19.20;99.90
3752;DHT22;50827;47.014;7.652;2023-07-13T02:56:32;19.20;99.90
3752;DHT22;50827;47.014;7.652;2023-07-13T02:58:58;19.20;99.90
3752;DHT22;50827;47.014;7.652;2023-07-13T03:01:25;19.20;99.90
3752;DHT22;50827;47.014;7.652;2023-07-13T03:03:52;19.20;99.90
3752;DHT22;50827;47.014;7.652;2023-07-13T03:06:20;19.30;99.90
3752;DHT22;50827;47.014;7.652;2023-07-13T03:08:48;19.20;99.90
3752;DHT22;50827;47.014;7.652;2023-07-13T03:11:18;19.20;99.90
3752;DHT22;50827;47.014;7.652;2023-07-13T03:13:46;19.20;99.90
3752;DHT22;50827;47.014;7.652;2023-07-13T03:16:13;19.30;99.90
3752;DHT22;50827;47.014;7.652;2023-07-13T03:18:46;19.20;99.90
3752;DHT22;50827;47.014;7.652;2023-07-13T03:21:13;19.30;99.90
3752;DHT22;50827;47.014;7.652;2023-07-13T03:23:39;19.30;99.90
3752;DHT22;50827;47.014;7.652;2023-07-13T03:26:12;19.30;99.90
3752;DHT22;50827;47.014;7.652;2023-07-13T03:28:40;19.30;99.90
3752;DHT22;50827;47.014;7.652;2023-07-13T03:31:13;19.30;99.90
3752;DHT22;50827;47.014;7.652;2023-07-13T03:33:41;19.30;99.90
3752;DHT22;50827;47.014;7.652;2023-07-13T03:36:12;19.30;99.90
3752;DHT22;50827;47.014;7.652;2023-07-13T03:38:39;19.30;99.90
3752;DHT22;50827;47.014;7.652;2023-07-13T03:41:06;19.30;99.90
3752;DHT22;50827;47.014;7.652;2023-07-13T03:43:33;19.20;99.90
3752;DHT22;50827;47.014;7.652;2023-07-13T03:45:59;19.20;99.90
3752;DHT22;50827;47.014;7.652;2023-07-13T03:48:26;19.20;99.90
3752;DHT22;50827;47.014;7.652;2023-07-13T03:50:53;19.20;99.90
3752;DHT22;50827;47.014;7.652;2023-07-13T03:53:20;19.20;99.90
3752;DHT22;50827;47.014;7.652;2023-07-13T03:55:46;19.20;99.90
3752;DHT22;50827;47.014;7.652;2023-07-13T04:00:51;19.30;99.90
3752;DHT22;50827;47.014;7.652;2023-07-13T04:03:17;19.20;99.90
3752;DHT22;50827;47.014;7.652;2023-07-13T04:05:44;19.20;99.90
3752;DHT22;50827;47.014;7.652;2023-07-13T04:08:11;19.10;99.90
3752;DHT22;50827;47.014;7.652;2023-07-13T04:10:38;19.10;99.90
3752;DHT22;50827;47.014;7.652;2023-07-13T04:13:05;19.10;99.90
3752;DHT22;50827;47.014;7.652;2023-07-13T04:15:32;19.20;99.90
3752;DHT22;50827;47.014;7.652;2023-07-13T04:17:59;19.10;99.90
3752;DHT22;50827;47.014;7.652;2023-07-13T04:20:26;19.10;99.90
3752;DHT22;50827;47.014;7.652;2023-07-13T04:22:53;19.10;99.90
3752;DHT22;50827;47.014;7.652;2023-07-13T04:25:21;19.20;99.90
3752;DHT22;50827;47.014;7.652;2023-07-13T04:27:47;19.10;99.90
3752;DHT22;50827;47.014;7.652;2023-07-13T04:30:14;19.10;99.90
3752;DHT22;50827;47.014;7.652;2023-07-13T04:32:41;19.10;99.90
3752;DHT22;50827;47.014;7.652;2023-07-13T04:35:08;19.10;99.90
3752;DHT22;50827;47.014;7.652;2023-07-13T04:37:35;19.10;99.90
3752;DHT22;50827;47.014;7.652;2023-07-13T04:40:03;19.10;99.90
3752;DHT22;50827;47.014;7.652;2023-07-13T04:42:30;19.00;99.90
3752;DHT22;50827;47.014;7.652;2023-07-13T04:44:57;19.00;99.90
3752;DHT22;50827;47.014;7.652;2023-07-13T04:47:23;19.00;99.90
3752;DHT22;50827;47.014;7.652;2023-07-13T04:49:50;19.00;99.90
3752;DHT22;50827;47.014;7.652;2023-07-13T04:52:17;19.00;99.90
3752;DHT22;50827;47.014;7.652;2023-07-13T04:54:44;19.00;99.90
3752;DHT22;50827;47.014;7.652;2023-07-13T04:57:10;19.00;99.90
3752;DHT22;50827;47.014;7.652;2023-07-13T04:59:37;19.10;99.90
3752;DHT22;50827;47.014;7.652;2023-07-13T05:02:04;19.10;99.90
3752;DHT22;50827;47.014;7.652;2023-07-13T05:04:31;19.10;99.90
3752;DHT22;50827;47.014;7.652;2023-07-13T05:06:59;19.10;99.90
3752;DHT22;50827;47.014;7.652;2023-07-13T05:09:26;19.10;99.90
3752;DHT22;50827;47.014;7.652;2023-07-13T05:11:53;19.10;99.90
3752;DHT22;50827;47.014;7.652;2023-07-13T05:14:19;19.10;99.90
3752;DHT22;50827;47.014;7.652;2023-07-13T05:16:46;19.00;99.90
3752;DHT22;50827;47.014;7.652;2023-07-13T05:19:13;19.00;99.90
3752;DHT22;50827;47.014;7.652;2023-07-13T05:21:39;18.90;99.90
3752;DHT22;50827;47.014;7.652;2023-07-13T05:24:07;18.90;99.90
3752;DHT22;50827;47.014;7.652;2023-07-13T05:26:50;18.90;99.90
3752;DHT22;50827;47.014;7.652;2023-07-13T05:29:17;18.90;99.90
3752;DHT22;50827;47.014;7.652;2023-07-13T05:31:43;18.90;99.90
3752;DHT22;50827;47.014;7.652;2023-07-13T05:34:10;18.90;99.90
3752;DHT22;50827;47.014;7.652;2023-07-13T05:36:37;18.90;99.90
3752;DHT22;50827;47.014;7.652;2023-07-13T05:39:04;18.90;99.90
3752;DHT22;50827;47.014;7.652;2023-07-13T05:41:31;18.90;99.90
3752;DHT22;50827;47.014;7.652;2023-07-13T05:43:57;18.90;99.90
3752;DHT22;50827;47.014;7.652;2023-07-13T05:46:24;18.90;99.90
3752;DHT22;50827;47.014;7.652;2023-07-13T05:48:51;18.90;99.90
3752;DHT22;50827;47.014;7.652;2023-07-13T05:51:18;18.90;99.90
3752;DHT22;50827;47.014;7.652;2023-07-13T05:53:46;18.90;99.90
3752;DHT22;50827;47.014;7.652;2023-07-13T05:56:14;19.00;99.90
3752;DHT22;50827;47.014;7.652;2023-07-13T05:58:41;19.00;99.90
3752;DHT22;50827;47.014;7.652;2023-07-13T06:01:13;19.00;99.90
3752;DHT22;50827;47.014;7.652;2023-07-13T06:03:41;19.00;99.90
3752;DHT22;50827;47.014;7.652;2023-07-13T06:06:09;19.10;99.90
3752;DHT22;50827;47.014;7.652;2023-07-13T06:08:36;19.00;99.90
3752;DHT22;50827;47.014;7.652;2023-07-13T06:11:15;19.10;99.90
3752;DHT22;50827;47.014;7.652;2023-07-13T06:13:43;19.10;99.90
3752;DHT22;50827;47.014;7.652;2023-07-13T06:16:10;19.20;99.90
3752;DHT22;50827;47.014;7.652;2023-07-13T06:18:40;19.20;99.90
3752;DHT22;50827;47.014;7.652;2023-07-13T06:21:15;19.20;99.90
3752;DHT22;50827;47.014;7.652;2023-07-13T06:23:43;19.30;99.90
3752;DHT22;50827;47.014;7.652;2023-07-13T06:26:10;19.30;99.90
3752;DHT22;50827;47.014;7.652;2023-07-13T06:28:37;19.30;99.90
3752;DHT22;50827;47.014;7.652;2023-07-13T06:31:08;19.30;99.90
3752;DHT22;50827;47.014;7.652;2023-07-13T06:33:36;19.30;99.90
3752;DHT22;50827;47.014;7.652;2023-07-13T06:36:05;19.30;99.90
3752;DHT22;50827;47.014;7.652;2023-07-13T06:38:32;19.30;99.90
3752;DHT22;50827;47.014;7.652;2023-07-13T06:40:59;19.30;99.90
3752;DHT22;50827;47.014;7.652;2023-07-13T06:43:25;19.40;99.90
3752;DHT22;50827;47.014;7.652;2023-07-13T06:45:55;19.30;99.90
3752;DHT22;50827;47.014;7.652;2023-07-13T06:48:22;19.30;99.90
3752;DHT22;50827;47.014;7.652;2023-07-13T06:50:50;19.30;99.90
3752;DHT22;50827;47.014;7.652;2023-07-13T06:53:19;19.30;99.90
3752;DHT22;50827;47.014;7.652;2023-07-13T06:55:46;19.40;99.90
3752;DHT22;50827;47.014;7.652;2023-07-13T06:58:14;19.30;99.90
3752;DHT22;50827;47.014;7.652;2023-07-13T07:00:41;19.30;99.90
3752;DHT22;50827;47.014;7.652;2023-07-13T07:03:08;19.40;99.90
3752;DHT22;50827;47.014;7.652;2023-07-13T07:05:35;19.40;99.90
3752;DHT22;50827;47.014;7.652;2023-07-13T07:08:02;19.40;99.90
3752;DHT22;50827;47.014;7.652;2023-07-13T07:10:30;19.40;99.90
3752;DHT22;50827;47.014;7.652;2023-07-13T07:12:57;19.50;99.90
3752;DHT22;50827;47.014;7.652;2023-07-13T07:15:25;19.40;99.90
3752;DHT22;50827;47.014;7.652;2023-07-13T07:17:51;19.50;99.90
3752;DHT22;50827;47.014;7.652;2023-07-13T07:20:18;19.50;99.90
3752;DHT22;50827;47.014;7.652;2023-07-13T07:22:47;19.50;99.90
3752;DHT22;50827;47.014;7.652;2023-07-13T07:25:14;19.50;99.90
3752;DHT22;50827;47.014;7.652;2023-07-13T07:27:40;19.60;99.90
3752;DHT22;50827;47.014;7.652;2023-07-13T07:30:10;19.60;99.90
3752;DHT22;50827;47.014;7.652;2023-07-13T07:32:40;19.70;99.90
3752;DHT22;50827;47.014;7.652;2023-07-13T07:35:23;19.70;99.90
3752;DHT22;50827;47.014;7.652;2023-07-13T07:37:50;19.70;99.90
3752;DHT22;50827;47.014;7.652;2023-07-13T07:40:18;19.80;99.90
3752;DHT22;50827;47.014;7.652;2023-07-13T07:42:48;19.80;99.90
3752;DHT22;50827;47.014;7.652;2023-07-13T07:45:15;19.80;99.90
3752;DHT22;50827;47.014;7.652;2023-07-13T07:47:42;19.80;99.90
3752;DHT22;50827;47.014;7.652;2023-07-13T07:50:09;19.80;99.90
3752;DHT22;50827;47.014;7.652;2023-07-13T07:52:36;19.90;99.90
3752;DHT22;50827;47.014;7.652;2023-07-13T07:55:05;19.90;99.90
3752;DHT22;50827;47.014;7.652;2023-07-13T07:57:35;20.00;99.90
3752;DHT22;50827;47.014;7.652;2023-07-13T08:00:05;20.00;99.90
3752;DHT22;50827;47.014;7.652;2023-07-13T08:02:35;20.00;99.90
3752;DHT22;50827;47.014;7.652;2023-07-13T08:05:05;20.00;99.90
3752;DHT22;50827;47.014;7.652;2023-07-13T08:07:36;20.10;99.90
3752;DHT22;50827;47.014;7.652;2023-07-13T08:10:03;20.10;99.90
3752;DHT22;50827;47.014;7.652;2023-07-13T08:12:34;20.10;99.90
3752;DHT22;50827;47.014;7.652;2023-07-13T08:15:06;20.20;99.90
3752;DHT22;50827;47.014;7.652;2023-07-13T08:17:35;20.30;99.90
3752;DHT22;50827;47.014;7.652;2023-07-13T08:20:02;20.30;99.90
3752;DHT22;50827;47.014;7.652;2023-07-13T08:22:28;20.30;99.90
3752;DHT22;50827;47.014;7.652;2023-07-13T08:24:55;20.30;99.90
3752;DHT22;50827;47.014;7.652;2023-07-13T08:27:23;20.30;99.90
3752;DHT22;50827;47.014;7.652;2023-07-13T08:29:51;20.30;99.90
3752;DHT22;50827;47.014;7.652;2023-07-13T08:32:19;20.40;99.90
3752;DHT22;50827;47.014;7.652;2023-07-13T08:34:46;20.40;99.90
3752;DHT22;50827;47.014;7.652;2023-07-13T08:37:13;20.40;99.90
3752;DHT22;50827;47.014;7.652;2023-07-13T08:39:40;20.50;99.90
3752;DHT22;50827;47.014;7.652;2023-07-13T08:47:23;20.50;99.90
3752;DHT22;50827;47.014;7.652;2023-07-13T08:49:51;20.60;99.90
3752;DHT22;50827;47.014;7.652;2023-07-13T08:52:34;20.60;99.90
3752;DHT22;50827;47.014;7.652;2023-07-13T08:55:43;20.60;99.90
3752;DHT22;50827;47.014;7.652;2023-07-13T08:58:13;20.60;99.90
3752;DHT22;50827;47.014;7.652;2023-07-13T09:00:59;20.50;99.90
3752;DHT22;50827;47.014;7.652;2023-07-13T09:03:36;20.60;99.90
3752;DHT22;50827;47.014;7.652;2023-07-13T09:06:06;20.70;99.90
3752;DHT22;50827;47.014;7.652;2023-07-13T09:08:46;20.60;99.90
3752;DHT22;50827;47.014;7.652;2023-07-13T09:17:10;20.70;99.90
3752;DHT22;50827;47.014;7.652;2023-07-13T09:19:40;20.80;99.90
3752;DHT22;50827;47.014;7.652;2023-07-13T09:22:11;20.80;99.90
3752;DHT22;50827;47.014;7.652;2023-07-13T09:25:05;20.80;99.90
3752;DHT22;50827;47.014;7.652;2023-07-13T09:27:40;20.90;99.90
3752;DHT22;50827;47.014;7.652;2023-07-13T09:32:45;21.00;99.90
3752;DHT22;50827;47.014;7.652;2023-07-13T09:35:19;21.00;99.90
3752;DHT22;50827;47.014;7.652;2023-07-13T09:37:48;21.10;99.90
3752;DHT22;50827;47.014;7.652;2023-07-13T09:40:40;21.10;99.90
3752;DHT22;50827;47.014;7.652;2023-07-13T09:43:13;21.10;99.90
3752;DHT22;50827;47.014;7.652;2023-07-13T09:45:40;21.20;99.90
3752;DHT22;50827;47.014;7.652;2023-07-13T09:48:12;21.10;99.90
3752;DHT22;50827;47.014;7.652;2023-07-13T09:50:40;21.10;99.90
3752;DHT22;50827;47.014;7.652;2023-07-13T09:53:15;21.00;99.90
3752;DHT22;50827;47.014;7.652;2023-07-13T09:55:44;21.00;99.90
3752;DHT22;50827;47.014;7.652;2023-07-13T09:58:16;20.90;99.90
3752;DHT22;50827;47.014;7.652;2023-07-13T10:00:57;20.90;99.90
3752;DHT22;50827;47.014;7.652;2023-07-13T10:03:28;20.90;99.90
3752;DHT22;50827;47.014;7.652;2023-07-13T10:06:09;20.90;99.90
3752;DHT22;50827;47.014;7.652;2023-07-13T10:08:37;20.80;99.90
3752;DHT22;50827;47.014;7.652;2023-07-13T10:11:13;20.70;99.90
3752;DHT22;50827;47.014;7.652;2023-07-13T10:13:55;20.70;99.90
3752;DHT22;50827;47.014;7.652;2023-07-13T10:16:25;20.90;99.90
3752;DHT22;50827;47.014;7.652;2023-07-13T10:18:58;20.80;99.90
3752;DHT22;50827;47.014;7.652;2023-07-13T10:21:30;20.90;99.90
3752;DHT22;50827;47.014;7.652;2023-07-13T10:24:26;21.00;99.90
3752;DHT22;50827;47.014;7.652;2023-07-13T10:27:17;20.90;99.90
3752;DHT22;50827;47.014;7.652;2023-07-13T10:32:22;21.30;99.90
3752;DHT22;50827;47.014;7.652;2023-07-13T10:34:51;21.20;99.90
3752;DHT22;50827;47.014;7.652;2023-07-13T10:37:27;21.30;99.90
3752;DHT22;50827;47.014;7.652;2023-07-13T10:39:57;21.40;99.90
3752;DHT22;50827;47.014;7.652;2023-07-13T10:42:33;21.40;99.90
3752;DHT22;50827;47.014;7.652;2023-07-13T10:45:01;21.60;99.90
3752;DHT22;50827;47.014;7.652;2023-07-13T10:47:29;21.60;99.90
3752;DHT22;50827;47.014;7.652;2023-07-13T10:49:58;21.70;99.90
3752;DHT22;50827;47.014;7.652;2023-07-13T10:53:02;21.80;99.90
3752;DHT22;50827;47.014;7.652;2023-07-13T10:55:34;21.70;99.90
3752;DHT22;50827;47.014;7.652;2023-07-13T10:58:37;21.80;99.90
3752;DHT22;50827;47.014;7.652;2023-07-13T11:01:08;21.80;99.90
3752;DHT22;50827;47.014;7.652;2023-07-13T11:03:53;21.90;99.90
3752;DHT22;50827;47.014;7.652;2023-07-13T11:06:33;22.00;99.90
3752;DHT22;50827;47.014;7.652;2023-07-13T11:09:30;22.10;99.90
3752;DHT22;50827;47.014;7.652;2023-07-13T11:12:02;22.10;99.90
3752;DHT22;50827;47.014;7.652;2023-07-13T11:14:42;22.10;99.90
3752;DHT22;50827;47.014;7.652;2023-07-13T11:17:51;22.20;99.90
3752;DHT22;50827;47.014;7.652;2023-07-13T11:20:36;22.30;99.90
3752;DHT22;50827;47.014;7.652;2023-07-13T11:23:18;22.30;99.90
3752;DHT22;50827;47.014;7.652;2023-07-13T11:25:45;22.40;99.90
3752;DHT22;50827;47.014;7.652;2023-07-13T11:36:13;22.60;99.90
3752;DHT22;50827;47.014;7.652;2023-07-13T11:38:45;22.70;99.90
3752;DHT22;50827;47.014;7.652;2023-07-13T11:41:17;22.70;99.90
3752;DHT22;50827;47.014;7.652;2023-07-13T11:43:49;22.80;99.90
3752;DHT22;50827;47.014;7.652;2023-07-13T11:46:24;22.90;99.90
3752;DHT22;50827;47.014;7.652;2023-07-13T11:48:52;22.90;99.90
3752;DHT22;50827;47.014;7.652;2023-07-13T11:51:24;22.90;99.90
3752;DHT22;50827;47.014;7.652;2023-07-13T11:53:54;22.90;99.90
3752;DHT22;50827;47.014;7.652;2023-07-13T11:56:24;23.00;99.90
3752;DHT22;50827;47.014;7.652;2023-07-13T11:58:56;23.00;99.90
3752;DHT22;50827;47.014;7.652;2023-07-13T12:01:26;23.00;99.90
3752;DHT22;50827;47.014;7.652;2023-07-13T12:03:53;23.10;99.90
3752;DHT22;50827;47.014;7.652;2023-07-13T12:06:40;23.20;99.90
3752;DHT22;50827;47.014;7.652;2023-07-13T12:09:13;23.30;99.90
3752;DHT22;50827;47.014;7.652;2023-07-13T12:11:43;23.40;99.90
3752;DHT22;50827;47.014;7.652;2023-07-13T12:14:14;23.50;99.90
3752;DHT22;50827;47.014;7.652;2023-07-13T12:16:42;23.60;99.90
3752;DHT22;50827;47.014;7.652;2023-07-13T12:19:18;23.70;99.90
3752;DHT22;50827;47.014;7.652;2023-07-13T12:21:47;23.70;99.90
3752;DHT22;50827;47.014;7.652;2023-07-13T12:24:16;23.70;99.90
3752;DHT22;50827;47.014;7.652;2023-07-13T12:26:43;23.70;99.90
3752;DHT22;50827;47.014;7.652;2023-07-13T12:29:17;23.80;99.90
3752;DHT22;50827;47.014;7.652;2023-07-13T12:31:45;23.90;99.90
3752;DHT22;50827;47.014;7.652;2023-07-13T12:34:15;23.80;99.90
3752;DHT22;50827;47.014;7.652;2023-07-13T12:39:22;24.00;99.90
3752;DHT22;50827;47.014;7.652;2023-07-13T12:41:51;24.00;99.90
3752;DHT22;50827;47.014;7.652;2023-07-13T12:44:28;24.00;99.90
3752;DHT22;50827;47.014;7.652;2023-07-13T12:47:04;24.10;99.90
3752;DHT22;50827;47.014;7.652;2023-07-13T12:49:48;24.20;99.90
3752;DHT22;50827;47.014;7.652;2023-07-13T12:52:22;24.30;99.90
3752;DHT22;50827;47.014;7.652;2023-07-13T12:55:06;24.40;99.90
3752;DHT22;50827;47.014;7.652;2023-07-13T12:57:41;24.40;99.90
3752;DHT22;50827;47.014;7.652;2023-07-13T13:00:30;24.50;99.90
3752;DHT22;50827;47.014;7.652;2023-07-13T13:03:05;24.50;99.90
3752;DHT22;50827;47.014;7.652;2023-07-13T13:05:57;24.60;99.90
3752;DHT22;50827;47.014;7.652;2023-07-13T13:08:24;24.60;99.90
3752;DHT22;50827;47.014;7.652;2023-07-13T13:10:50;24.70;99.90
3752;DHT22;50827;47.014;7.652;2023-07-13T13:13:17;24.70;99.90
3752;DHT22;50827;47.014;7.652;2023-07-13T13:15:44;24.80;99.90
3752;DHT22;50827;47.014;7.652;2023-07-13T13:18:18;24.90;99.90
3752;DHT22;50827;47.014;7.652;2023-07-13T13:20:46;25.00;99.90
3752;DHT22;50827;47.014;7.652;2023-07-13T13:23:14;25.00;99.90
3752;DHT22;50827;47.014;7.652;2023-07-13T13:25:42;25.00;99.90
3752;DHT22;50827;47.014;7.652;2023-07-13T13:28:16;25.00;99.90
3752;DHT22;50827;47.014;7.652;2023-07-13T13:30:46;24.90;99.90
3752;DHT22;50827;47.014;7.652;2023-07-13T13:33:16;24.90;99.90
3752;DHT22;50827;47.014;7.652;2023-07-13T13:35:44;24.80;99.90
3752;DHT22;50827;47.014;7.652;2023-07-13T13:38:19;24.80;99.90
3752;DHT22;50827;47.014;7.652;2023-07-13T13:40:46;24.90;99.90
3752;DHT22;50827;47.014;7.652;2023-07-13T13:43:22;25.00;99.90
3752;DHT22;50827;47.014;7.652;2023-07-13T13:45:56;25.10;99.90
3752;DHT22;50827;47.014;7.652;2023-07-13T13:48:32;25.10;99.90
3752;DHT22;50827;47.014;7.652;2023-07-13T13:51:00;25.20;99.90
3752;DHT22;50827;47.014;7.652;2023-07-13T13:53:27;25.10;99.90
3752;DHT22;50827;47.014;7.652;2023-07-13T13:55:54;25.10;99.90
3752;DHT22;50827;47.014;7.652;2023-07-13T13:58:21;25.20;99.90
3752;DHT22;50827;47.014;7.652;2023-07-13T14:00:48;25.30;99.90
3752;DHT22;50827;47.014;7.652;2023-07-13T14:03:20;25.30;99.90
3752;DHT22;50827;47.014;7.652;2023-07-13T14:05:48;25.30;99.90
3752;DHT22;50827;47.014;7.652;2023-07-13T14:08:17;25.40;99.90
3752;DHT22;50827;47.014;7.652;2023-07-13T14:10:46;25.40;99.90
3752;DHT22;50827;47.014;7.652;2023-07-13T14:13:21;25.50;99.90
3752;DHT22;50827;47.014;7.652;2023-07-13T14:15:50;25.50;99.90
3752;DHT22;50827;47.014;7.652;2023-07-13T14:18:18;25.50;99.90
3752;DHT22;50827;47.014;7.652;2023-07-13T14:20:46;25.60;99.90
3752;DHT22;50827;47.014;7.652;2023-07-13T14:23:14;25.60;99.90
3752;DHT22;50827;47.014;7.652;2023-07-13T14:25:42;25.60;99.90
3752;DHT22;50827;47.014;7.652;2023-07-13T14:28:26;25.60;99.90
3752;DHT22;50827;47.014;7.652;2023-07-13T14:30:53;25.70;99.90
3752;DHT22;50827;47.014;7.652;2023-07-13T14:33:23;25.60;99.90
3752;DHT22;50827;47.014;7.652;2023-07-13T14:35:51;25.60;99.90
3752;DHT22;50827;47.014;7.652;2023-07-13T14:38:20;25.70;99.90
3752;DHT22;50827;47.014;7.652;2023-07-13T14:40:47;25.80;99.90
3752;DHT22;50827;47.014;7.652;2023-07-13T14:43:15;25.70;99.90
3752;DHT22;50827;47.014;7.652;2023-07-13T14:45:51;25.60;99.90
3752;DHT22;50827;47.014;7.652;2023-07-13T14:48:24;25.60;99.90
3752;DHT22;50827;47.014;7.652;2023-07-13T14:50:55;25.60;99.90
3752;DHT22;50827;47.014;7.652;2023-07-13T14:53:24;25.70;99.90
3752;DHT22;50827;47.014;7.652;2023-07-13T14:55:51;25.80;99.90
3752;DHT22;50827;47.014;7.652;2023-07-13T14:58:19;25.90;99.90
3752;DHT22;50827;47.014;7.652;2023-07-13T15:00:46;25.90;99.90
3752;DHT22;50827;47.014;7.652;2023-07-13T15:03:24;25.90;99.90
3752;DHT22;50827;47.014;7.652;2023-07-13T15:05:52;26.00;99.90
3752;DHT22;50827;47.014;7.652;2023-07-13T15:08:19;26.00;99.90
3752;DHT22;50827;47.014;7.652;2023-07-13T15:10:46;26.00;99.90
3752;DHT22;50827;47.014;7.652;2023-07-13T15:13:21;26.10;99.90
3752;DHT22;50827;47.014;7.652;2023-07-13T15:15:51;26.10;99.90
3752;DHT22;50827;47.014;7.652;2023-07-13T15:18:21;25.90;99.90
3752;DHT22;50827;47.014;7.652;2023-07-13T15:20:49;25.90;99.90
3752;DHT22;50827;47.014;7.652;2023-07-13T15:23:17;26.00;99.90
3752;DHT22;50827;47.014;7.652;2023-07-13T15:25:45;25.90;99.90
3752;DHT22;50827;47.014;7.652;2023-07-13T15:28:12;26.00;99.90
3752;DHT22;50827;47.014;7.652;2023-07-13T15:30:47;26.00;99.90
3752;DHT22;50827;47.014;7.652;2023-07-13T15:33:21;26.10;99.90
3752;DHT22;50827;47.014;7.652;2023-07-13T15:35:49;26.10;99.90
3752;DHT22;50827;47.014;7.652;2023-07-13T15:38:20;26.20;99.90
3752;DHT22;50827;47.014;7.652;2023-07-13T15:40:48;26.20;99.90
3752;DHT22;50827;47.014;7.652;2023-07-13T15:43:16;26.30;99.90
3752;DHT22;50827;47.014;7.652;2023-07-13T15:45:44;26.30;99.90
3752;DHT22;50827;47.014;7.652;2023-07-13T15:50:44;26.40;99.90
3752;DHT22;50827;47.014;7.652;2023-07-13T15:53:11;26.50;99.90
3752;DHT22;50827;47.014;7.652;2023-07-13T15:55:39;26.40;99.90
3752;DHT22;50827;47.014;7.652;2023-07-13T15:58:12;26.30;99.90
3752;DHT22;50827;47.014;7.652;2023-07-13T16:00:39;26.10;99.90
3752;DHT22;50827;47.014;7.652;2023-07-13T16:03:08;26.10;99.90
3752;DHT22;50827;47.014;7.652;2023-07-13T16:05:35;26.10;99.90
3752;DHT22;50827;47.014;7.652;2023-07-13T16:08:05;26.20;99.90
3752;DHT22;50827;47.014;7.652;2023-07-13T16:10:37;26.20;99.90
3752;DHT22;50827;47.014;7.652;2023-07-13T16:13:05;26.30;99.90
3752;DHT22;50827;47.014;7.652;2023-07-13T16:15:32;26.30;99.90
3752;DHT22;50827;47.014;7.652;2023-07-13T16:17:59;26.30;99.90
3752;DHT22;50827;47.014;7.652;2023-07-13T16:20:26;26.30;99.90
3752;DHT22;50827;47.014;7.652;2023-07-13T16:22:54;26.20;99.90
3752;DHT22;50827;47.014;7.652;2023-07-13T16:25:24;26.20;99.90
3752;DHT22;50827;47.014;7.652;2023-07-13T16:27:53;26.20;99.90
3752;DHT22;50827;47.014;7.652;2023-07-13T16:30:23;26.30;99.90
3752;DHT22;50827;47.014;7.652;2023-07-13T16:32:51;26.30;99.90
3752;DHT22;50827;47.014;7.652;2023-07-13T16:35:20;26.30;99.90
3752;DHT22;50827;47.014;7.652;2023-07-13T16:37:47;26.30;99.90